Currently 50°F in French Valley, California, USA
50°F
50°F / 48°F
calm
0.93"
Friday, January 20, 2017 1:57 PM PST

French Valley, California Weather Summary
Last 36 Hours

Temperature Winds Hourly Humidity Dewpoint
Time Report Norm Report Norm Max Gusts Precip. Rpt. Norm Rpt. Norm Pressure
1Fri 01:57 PM  50.4°F  67°F  calm  4 mph  none  0.25"  99%  42%  50°F  43°F  29.58"
2Fri 01:56 PM  50.4°F  67°F  calm  4 mph  none  ----  99%  42%  50°F  43°F  29.58"
Fri 01:00 PM  49.2°F  66°F  calm  5 mph  none  0.13"  98%  44%  49°F  43°F  29.61"
Fri 12:00 PM  48.9°F  64°F  calm  4 mph  none  0.16"  98%  48%  48°F  43°F  29.69"
Fri 11:00 AM  49.0°F  62°F  calm  3 mph  none  0.04"  99%  53%  49°F  44°F  29.75"
Fri 10:00 AM  49.0°F  57°F  calm  3 mph  none  0.03"  98%  63%  49°F  44°F  29.82"
Fri 09:00 AM  48.5°F  53°F  calm  2 mph  none  0.09"  99%  71%  48°F  43°F  29.85"
3Fri 08:05 AM  47.7°F  49°F  calm  1 mph  none  ----  99%  76%  47°F  41°F  29.87"
Fri 08:00 AM  47.9°F  48°F  calm  1 mph  none  0.07"  99%  76%  48°F  41°F  29.87"
Fri 07:00 AM  48.2°F  47°F  calm  1 mph  none  0.01"  99%  78%  48°F  40°F  29.88"
Fri 06:00 AM  48.9°F  47°F  calm  1 mph  none  0.05"  99%  78%  49°F  40°F  29.90"
Fri 05:00 AM  49.2°F  47°F  calm  1 mph  none  0.08"  99%  78%  49°F  40°F  29.89"
Fri 04:00 AM  49.2°F  48°F  calm  1 mph  none  0.01"  99%  77%  49°F  41°F  29.91"
Fri 03:00 AM  48.7°F  48°F  calm  1 mph  none  0.00"  99%  77%  48°F  41°F  29.95"
Fri 02:00 AM  49.2°F  49°F  calm  1 mph  none  0.01"  99%  76%  49°F  41°F  29.97"
Fri 01:00 AM  49.6°F  49°F  calm  1 mph  none  0.00"  99%  76%  49°F  42°F  29.97"
Fri 12:00 AM  49.4°F  50°F  calm  1 mph  none  0.56"  99%  74%  49°F  42°F  29.98"
Thu 11:00 PM  49.5°F  51°F  calm  1 mph  none  0.00"  98%  74%  49°F  43°F  30.01"
Thu 10:00 PM  49.8°F  52°F  calm  1 mph  none  0.00"  98%  73%  49°F  43°F  30.01"
Thu 09:00 PM  50.1°F  53°F  calm  1 mph  none  0.00"  98%  72%  50°F  43°F  30.02"
Thu 08:00 PM  49.3°F  54°F  calm  1 mph  none  0.00"  98%  70%  49°F  44°F  30.01"
Thu 07:00 PM  50.6°F  56°F  calm  2 mph  none  0.00"  96%  68%  49°F  45°F  30.01"
Thu 06:00 PM  51.4°F  59°F  calm  2 mph  none  0.00"  90%  60%  48°F  45°F  30.02"
Thu 05:00 PM  53.1°F  63°F  calm  2 mph  none  0.00"  85%  51%  49°F  44°F  30.01"
Thu 04:00 PM  54.7°F  66°F  calm  3 mph  none  0.00"  77%  46%  47°F  44°F  30.00"
Thu 03:00 PM  56.7°F  67°F  calm  4 mph  none  0.00"  74%  43%  48°F  43°F  30.00"
Thu 02:00 PM  58.0°F  67°F  calm  4 mph  none  0.00"  71%  42%  48°F  43°F  30.02"
Thu 01:00 PM  57.1°F  66°F  calm  5 mph  none  0.00"  68%  44%  46°F  43°F  30.02"
Thu 12:00 PM  57.0°F  64°F  calm  4 mph  none  0.00"  74%  48%  48°F  43°F  30.03"
Thu 11:00 AM  57.5°F  61°F  calm  3 mph  none  0.00"  77%  54%  50°F  44°F  30.06"
Thu 10:00 AM  54.3°F  57°F  calm  3 mph  none  0.00"  96%  63%  53°F  44°F  30.07"
Thu 09:00 AM  53.3°F  53°F  calm  2 mph  none  0.01"  99%  71%  53°F  43°F  30.04"
Thu 08:00 AM  52.0°F  48°F  calm  1 mph  none  0.22"  99%  77%  52°F  41°F  30.04"
Thu 07:00 AM  49.6°F  46°F  calm  1 mph  none  0.16"  99%  79%  49°F  40°F  30.03"
Thu 06:00 AM  48.7°F  47°F  calm  1 mph  none  0.14"  98%  78%  48°F  40°F  30.04"
Thu 05:00 AM  49.3°F  47°F  calm  1 mph  none  0.03"  98%  78%  49°F  40°F  30.07"
Thu 04:00 AM  49.9°F  47°F  calm  1 mph  none  0.00"  96%  77%  49°F  40°F  30.13"
Thu 03:00 AM  49.6°F  48°F  calm  1 mph  none  0.00"  97%  77%  49°F  41°F  30.14"
Thu 02:00 AM  49.4°F  49°F  calm  1 mph  none  0.00"  98%  76%  49°F  41°F  30.11"

  1. Current weather data. No green row appears if the current weather data is also the high or low for the current day.
  2. High temperature for the current day.
  3. Low temperature for the current day.

The French Valley, California weather pages are a service of WeatherCurrents. French Valley is located in southwestern Riverside County, California, north of Temecula, east of Murrieta, and south of Winchester. French Valley is bordered by Lake Skinner.
Copyright ©Fri Jan 20 13:58:25 PST 2017  WeatherCurrents. All rights reserved. - Submit questions and comments - Privacy Policy

This page automatically refreshes every 10 minutes.